< < Back
Terminal Aerodrome Forecast


Current Version              Previous Versions:   1  2  3  4  5  6  7  8  9  

Terminal Aerodrome Forecast

441
FTUS42 KCAE 281337 AAA
TAFCAE
TAF AMD
KCAE 281337Z 2814/2912 07008KT P6SM BKN250
     FM281700 07008KT P6SM BKN035
     FM290200 09003KT P6SM SCT250=

Latest METAR

088
SAUS80 KWBC 281400
MTRCAE
METAR KCAE 281356Z 07006KT 10SM FEW025 BKN250 25/18 A3015 RMK AO2 SLP208
T02500178


USA.gov is the U.S. government's official web portal to all federal, state and local government web resources and services.